Edgerton, Ohio
Current Conditions -  °F | °C
As of 3:53 PM on Thursday 27 Nov 2014 (Local Time) from KDFI Reporting Station
Light Snow Light Snow  
Wind Chill: 25°   Ceiling: 2900
Heat Index: 33°   Visibility: 8mi
Dew Point: 26°   Wind: 9mph
Humidity: 75%   Direction: 270°W
Pressure: 30.22"   Gusts: NA
Location:  41.45°N, 84.75°W
Report Text: KDFI 272053Z AUTO 27008KT 8SM -SN FEW021 BKN029 OVC055 01/M03 A3022 RMK AO2 SNB36 SLP242 P0000 60000 T00061033 53003
Loading
Personal Weather Stations






























Interactive Weather Map New forecast layout! Learn more

10-Day Weather Forecast

Advertisements
Track Severe Weather on mobile